Time;durP1;ratioP1;P1;durP2;ratioP2;P2;SDS_P1;SDS_P2;PMS_P1;PMS_P2;Temp;Humidity;BMP_temperature;BMP_pressure;BME280_temperature;BME280_humidity;BME280_pressure;Samples;Min_cycle;Max_cycle;Signal;HPM_P1;HPM_P2
2024/01/21 00:00:56;;;;;;;2.50;0.77;;;;;;;-3.21;82.34;95815.16;6192989;23;20035;-89
2024/01/21 00:03:22;;;;;;;2.35;0.77;;;;;;;-3.24;82.10;95816.25;6218174;23;20083;-90
2024/01/21 00:05:48;;;;;;;3.55;0.85;;;;;;;-3.01;83.07;95818.41;6217159;23;20502;-89
2024/01/21 00:08:13;;;;;;;3.60;1.02;;;;;;;-3.41;89.10;95821.19;6217811;23;20046;-90
2024/01/21 00:10:38;;;;;;;3.42;1.13;;;;;;;-3.68;94.40;95819.47;6218802;23;20000;-89
2024/01/21 00:13:04;;;;;;;2.15;0.95;;;;;;;-3.71;94.68;95820.53;6192746;23;19993;-90
2024/01/21 00:15:29;;;;;;;5.78;1.38;;;;;;;-3.59;100.00;95828.03;6217268;23;20003;-90
2024/01/21 00:17:55;;;;;;;2.50;1.10;;;;;;;-3.72;100.00;95825.81;6192199;23;20004;-89
2024/01/21 00:20:20;;;;;;;5.28;1.95;;;;;;;-3.76;100.00;95825.28;6192583;23;20062;-90
2024/01/21 00:22:46;;;;;;;7.88;2.53;;;;;;;-3.78;100.00;95813.56;6167581;23;20011;-90
2024/01/21 00:25:11;;;;;;;7.40;2.55;;;;;;;-3.76;100.00;95814.22;6191422;23;20004;-90
2024/01/21 00:27:37;;;;;;;7.45;2.58;;;;;;;-3.75;100.00;95814.09;6219068;23;20000;-90
2024/01/21 00:30:04;;;;;;;5.70;2.47;;;;;;;-3.78;100.00;95814.38;6217387;23;19997;-90
2024/01/21 00:32:29;;;;;;;3.60;1.55;;;;;;;-3.66;100.00;95812.44;6217906;23;20482;-90
2024/01/21 00:34:55;;;;;;;5.95;1.50;;;;;;;-3.47;97.25;95813.28;6192687;23;19997;-90
2024/01/21 00:37:20;;;;;;;5.70;1.88;;;;;;;-3.47;96.80;95815.84;6217148;23;20416;-90
2024/01/21 00:39:46;;;;;;;5.07;1.52;;;;;;;-3.62;99.67;95808.63;6193079;23;20000;-90
2024/01/21 00:42:11;;;;;;;6.50;2.30;;;;;;;-3.48;100.00;95829.59;6217361;23;20047;-90
2024/01/21 00:44:38;;;;;;;10.20;2.90;;;;;;;-3.64;100.00;95828.47;6192026;23;20000;-90
2024/01/21 00:47:04;;;;;;;7.63;1.95;;;;;;;-3.79;100.00;95827.31;6216970;23;20000;-90
2024/01/21 00:49:30;;;;;;;4.00;1.88;;;;;;;-3.84;100.00;95825.19;6192121;23;20057;-89
2024/01/21 00:51:56;;;;;;;4.45;1.50;;;;;;;-3.73;100.00;95827.56;6192563;23;20008;-90
2024/01/21 00:54:22;;;;;;;8.27;1.50;;;;;;;-3.72;100.00;95828.38;6192186;23;20000;-90
2024/01/21 00:56:47;;;;;;;4.20;1.38;;;;;;;-3.74;100.00;95825.13;6217329;23;20012;-90
2024/01/21 00:59:13;;;;;;;3.63;1.67;;;;;;;-3.73;100.00;95826.75;6192533;23;20055;-90
2024/01/21 01:01:39;;;;;;;4.97;1.73;;;;;;;-3.87;100.00;95826.28;6217041;23;20365;-90
2024/01/21 01:04:05;;;;;;;17.17;6.10;;;;;;;-3.88;100.00;95829.75;6192237;23;19997;-89
2024/01/21 01:06:31;;;;;;;9.02;2.60;;;;;;;-3.90;100.00;95838.56;6216992;23;20001;-90
2024/01/21 01:08:57;;;;;;;6.43;1.17;;;;;;;-3.90;100.00;95826.53;6216861;23;20043;-90
2024/01/21 01:11:22;;;;;;;4.22;1.17;;;;;;;-3.75;100.00;95821.78;6217202;23;20004;-90
2024/01/21 01:13:47;;;;;;;4.90;1.50;;;;;;;-3.63;100.00;95821.59;6191618;23;20421;-90
2024/01/21 01:16:13;;;;;;;3.95;0.93;;;;;;;-3.52;96.36;95831.63;6191688;23;19997;-90
2024/01/21 01:18:39;;;;;;;4.38;1.27;;;;;;;-3.57;98.50;95826.97;6217242;23;20271;-90
2024/01/21 01:21:04;;;;;;;3.38;1.20;;;;;;;-3.59;97.56;95828.03;6191943;23;20007;-90
2024/01/21 01:23:29;;;;;;;2.60;0.98;;;;;;;-3.80;100.00;95826.53;6216376;23;20056;-90
2024/01/21 01:25:55;;;;;;;2.75;1.30;;;;;;;-3.71;100.00;95819.75;6191789;23;20012;-89
2024/01/21 01:28:21;;;;;;;2.42;1.10;;;;;;;-3.44;100.00;95824.06;6192519;23;20051;-90
2024/01/21 01:30:46;;;;;;;4.28;1.40;;;;;;;-3.73;100.00;95831.88;6217195;23;20005;-90
2024/01/21 01:33:12;;;;;;;2.92;1.35;;;;;;;-3.89;100.00;95833.28;6191882;23;19996;-90
2024/01/21 01:35:38;;;;;;;3.45;1.13;;;;;;;-4.00;100.00;95833.47;6216580;23;20009;-90
2024/01/21 01:38:05;;;;;;;6.97;1.58;;;;;;;-4.00;100.00;95834.25;6217500;23;20004;-90
2024/01/21 01:40:31;;;;;;;2.55;1.50;;;;;;;-4.02;100.00;95835.34;6216774;23;19996;-90
2024/01/21 01:42:59;;;;;;;5.25;1.42;;;;;;;-4.06;100.00;95836.56;6216203;23;19996;-89
2024/01/21 01:45:24;;;;;;;8.10;1.20;;;;;;;-3.74;100.00;95843.06;6191897;23;20058;-90
2024/01/21 01:47:50;;;;;;;4.47;0.95;;;;;;;-3.79;100.00;95838.38;6216617;23;20006;-89
2024/01/21 01:50:17;;;;;;;3.30;1.40;;;;;;;-3.53;100.00;95839.47;6216665;23;19996;-89
2024/01/21 01:52:43;;;;;;;9.80;1.40;;;;;;;-3.69;100.00;95843.47;6192112;23;20058;-90
2024/01/21 01:55:08;;;;;;;4.68;1.92;;;;;;;-3.87;100.00;95841.66;6216326;23;19997;-90
2024/01/21 01:57:34;;;;;;;3.47;1.50;;;;;;;-3.80;100.00;95838.50;6218137;23;20008;-90
2024/01/21 02:00:00;;;;;;;2.92;1.40;;;;;;;-3.71;100.00;95830.00;6216794;23;20002;-90
2024/01/21 02:02:25;;;;;;;1.83;0.90;;;;;;;-3.78;100.00;95826.38;6191274;23;20004;-90
2024/01/21 02:04:51;;;;;;;6.82;1.63;;;;;;;-4.04;100.00;95827.00;6191167;23;20012;-90
2024/01/21 02:07:16;;;;;;;4.63;1.65;;;;;;;-3.99;100.00;95820.50;6191775;23;20027;-90
2024/01/21 02:09:42;;;;;;;5.85;1.55;;;;;;;-3.87;100.00;95821.16;6191220;23;20000;-90
2024/01/21 02:12:07;;;;;;;4.25;1.75;;;;;;;-3.71;100.00;95822.31;6192003;23;20004;-90
2024/01/21 02:14:33;;;;;;;5.47;1.45;;;;;;;-3.71;100.00;95824.88;6191965;23;19992;-89
2024/01/21 02:16:58;;;;;;;3.83;1.50;;;;;;;-3.90;100.00;95821.41;6192259;23;20305;-90
2024/01/21 02:22:47;;;;;;;3.22;1.50;;;;;;;-4.29;100.00;95811.31;6217649;23;20023;-90
2024/01/21 02:25:12;;;;;;;9.07;1.70;;;;;;;-4.32;100.00;95822.63;6191661;23;20011;-90
2024/01/21 02:27:38;;;;;;;6.18;1.60;;;;;;;-4.28;100.00;95826.53;6190483;23;20044;-90
2024/01/21 02:30:05;;;;;;;4.28;1.27;;;;;;;-4.16;100.00;95814.38;6191522;23;20054;-90
2024/01/21 02:32:31;;;;;;;2.47;1.23;;;;;;;-4.03;100.00;95813.25;6216702;23;20004;-91
2024/01/21 02:34:56;;;;;;;3.38;1.30;;;;;;;-3.88;100.00;95813.59;6216447;23;20031;-91
2024/01/21 02:37:22;;;;;;;3.97;1.05;;;;;;;-4.00;100.00;95807.88;6191616;23;20001;-90
2024/01/21 02:39:47;;;;;;;4.38;1.08;;;;;;;-4.14;100.00;95802.25;6191222;23;20004;-91
2024/01/21 02:42:13;;;;;;;3.90;1.20;;;;;;;-4.12;100.00;95797.78;6191523;23;20016;-90
2024/01/21 02:44:38;;;;;;;7.40;1.10;;;;;;;-4.01;100.00;95801.13;6191100;23;20004;-90
2024/01/21 02:47:04;;;;;;;4.22;0.82;;;;;;;-4.03;100.00;95801.25;6191701;23;20327;-90
2024/01/21 02:49:29;;;;;;;1.25;0.70;;;;;;;-4.02;100.00;95797.75;6191152;23;20007;-91
2024/01/21 02:51:58;;;;;;;3.15;0.90;;;;;;;-4.12;100.00;95790.13;6191476;23;20001;-89
2024/01/21 02:54:24;;;;;;;5.45;1.30;;;;;;;-4.03;100.00;95795.31;6216341;23;20000;-91
2024/01/21 02:56:50;;;;;;;7.07;1.98;;;;;;;-3.95;100.00;95799.75;6216028;23;19996;-90
2024/01/21 02:59:15;;;;;;;2.53;1.05;;;;;;;-4.03;100.00;95792.75;6191231;23;20004;-90
2024/01/21 03:01:41;;;;;;;5.50;1.75;;;;;;;-4.17;100.00;95788.91;6216272;23;20391;-91
2024/01/21 03:04:09;;;;;;;3.03;1.52;;;;;;;-4.09;100.00;95785.66;6216341;23;19996;-90
2024/01/21 03:06:35;;;;;;;2.30;1.02;;;;;;;-4.19;100.00;95789.03;6217136;23;20039;-90
2024/01/21 03:09:00;;;;;;;4.55;1.02;;;;;;;-4.02;100.00;95782.41;6191637;23;20383;-91
2024/01/21 03:11:26;;;;;;;6.40;1.00;;;;;;;-4.13;100.00;95773.16;6191124;23;20005;-91
2024/01/21 03:13:51;;;;;;;4.38;0.88;;;;;;;-3.94;100.00;95779.13;6216173;23;20063;-91
2024/01/21 03:16:17;;;;;;;3.05;1.00;;;;;;;-4.08;100.00;95789.81;6191173;23;20000;-90
2024/01/21 03:18:42;;;;;;;1.17;0.77;;;;;;;-4.03;100.00;95787.66;6216662;23;19997;-91
2024/01/21 03:21:08;;;;;;;3.88;0.95;;;;;;;-4.13;100.00;95785.94;6216133;23;20012;-90
2024/01/21 03:23:34;;;;;;;4.72;1.25;;;;;;;-3.92;100.00;95786.69;6215441;23;20000;-84
2024/01/21 03:25:59;;;;;;;4.88;1.10;;;;;;;-3.66;96.53;95786.81;6216725;23;20123;-85
2024/01/21 03:28:25;;;;;;;1.90;0.70;;;;;;;-3.65;94.40;95785.06;6190588;23;20008;-85
2024/01/21 03:30:51;;;;;;;1.77;0.73;;;;;;;-3.43;88.66;95791.56;6189966;23;20031;-85
2024/01/21 03:33:16;;;;;;;1.25;0.60;;;;;;;-3.28;86.35;95795.25;6215670;23;20039;-85
2024/01/21 03:35:42;;;;;;;3.17;0.77;;;;;;;-3.07;82.74;95801.03;6215230;23;20012;-84
2024/01/21 03:38:07;;;;;;;1.70;0.73;;;;;;;-3.39;98.07;95792.88;6215655;23;20012;-84
2024/01/21 03:40:32;;;;;;;3.35;1.00;;;;;;;-3.30;86.64;95781.75;6191975;23;20466;-85
2024/01/21 03:42:58;;;;;;;2.22;1.02;;;;;;;-3.37;84.05;95790.97;6192676;23;20005;-85
2024/01/21 03:45:23;;;;;;;6.22;0.77;;;;;;;-3.29;79.45;95791.06;6217044;23;20051;-84
2024/01/21 03:47:49;;;;;;;4.18;0.60;;;;;;;-3.15;76.28;95792.31;6217345;23;20088;-84
2024/01/21 03:50:20;;;;;;;2.05;0.70;;;;;;;-3.00;73.36;95797.75;6216824;23;19996;-85
2024/01/21 03:52:46;;;;;;;0.50;0.50;;;;;;;-3.12;73.34;95794.56;6193765;23;20082;-85
2024/01/21 03:55:12;;;;;;;2.55;0.80;;;;;;;-3.25;75.73;95786.44;6192649;23;20051;-84
2024/01/21 03:57:37;;;;;;;1.83;0.60;;;;;;;-3.46;77.32;95789.25;6216656;23;20000;-85
2024/01/21 04:00:04;;;;;;;6.90;0.90;;;;;;;-3.43;79.93;95792.34;6217156;23;20362;-85
2024/01/21 04:02:30;;;;;;;1.98;0.77;;;;;;;-3.51;85.58;95799.16;6191907;23;20310;-84
2024/01/21 04:04:56;;;;;;;1.10;0.60;;;;;;;-3.55;88.50;95801.19;6216876;23;20119;-84
2024/01/21 04:07:21;;;;;;;1.23;0.70;;;;;;;-3.69;90.89;95794.78;6192423;23;20004;-84
2024/01/21 04:09:47;;;;;;;3.33;0.82;;;;;;;-3.91;88.11;95793.41;6191754;23;20046;-85
2024/01/21 04:12:13;;;;;;;3.17;0.90;;;;;;;-4.09;93.64;95798.47;6191934;23;20043;-84
2024/01/21 04:14:39;;;;;;;2.63;0.98;;;;;;;-4.23;100.00;95792.03;6192050;23;19997;-85
2024/01/21 04:17:04;;;;;;;2.80;0.70;;;;;;;-4.24;100.00;95783.56;6217065;23;20007;-85
2024/01/21 04:19:30;;;;;;;4.32;0.80;;;;;;;-4.15;100.00;95790.41;6187988;23;20001;-85
2024/01/21 04:21:55;;;;;;;2.60;0.60;;;;;;;-4.20;97.24;95787.44;6190984;23;20317;-84
2024/01/21 04:24:20;;;;;;;3.03;0.70;;;;;;;-4.26;100.00;95788.00;6216562;23;19996;-84
2024/01/21 04:26:46;;;;;;;2.95;0.60;;;;;;;-4.24;100.00;95782.72;6217045;23;20398;-84
2024/01/21 04:29:11;;;;;;;3.85;0.70;;;;;;;-4.40;96.21;95779.00;6216760;23;19993;-84
2024/01/21 04:31:37;;;;;;;2.50;0.73;;;;;;;-4.32;95.41;95775.75;6216435;23;20444;-84
2024/01/21 04:34:03;;;;;;;0.50;0.50;;;;;;;-4.23;89.78;95774.09;6216944;23;20472;-85
2024/01/21 04:36:28;;;;;;;9.25;0.80;;;;;;;-4.33;88.44;95774.13;6216844;23;20047;-85
2024/01/21 04:38:54;;;;;;;1.63;0.73;;;;;;;-4.41;86.92;95770.53;6216545;23;20015;-84
2024/01/21 04:41:19;;;;;;;4.78;0.80;;;;;;;-4.43;88.00;95780.09;6191970;23;20007;-85
2024/01/21 04:43:45;;;;;;;1.58;0.60;;;;;;;-4.31;88.22;95777.34;6216507;23;20000;-84
2024/01/21 04:46:11;;;;;;;3.47;0.70;;;;;;;-4.21;86.37;95777.34;6216660;23;20009;-84
2024/01/21 04:48:37;;;;;;;1.95;0.90;;;;;;;-4.17;82.28;95778.69;6216594;23;20421;-84
2024/01/21 04:51:02;;;;;;;3.22;0.90;;;;;;;-4.20;78.89;95768.72;6216001;23;20007;-85
2024/01/21 04:53:28;;;;;;;2.35;0.63;;;;;;;-4.26;80.66;95775.22;6216350;23;20000;-85
2024/01/21 04:55:54;;;;;;;5.13;0.90;;;;;;;-4.24;76.18;95783.56;6191672;23;19997;-84
2024/01/21 04:58:19;;;;;;;0.77;0.60;;;;;;;-4.10;77.52;95779.72;6216465;23;19996;-84
2024/01/21 05:00:44;;;;;;;1.65;0.60;;;;;;;-4.30;77.38;95773.88;6216241;23;20097;-85
2024/01/21 05:03:10;;;;;;;1.48;0.70;;;;;;;-4.32;76.78;95779.13;6191846;23;19996;-85
2024/01/21 05:05:38;;;;;;;1.15;0.50;;;;;;;-4.48;78.40;95787.38;6215781;23;20005;-84
2024/01/21 05:08:04;;;;;;;4.20;0.77;;;;;;;-4.38;72.78;95784.00;6216402;23;20414;-84
2024/01/21 05:10:29;;;;;;;1.83;0.60;;;;;;;-4.39;73.81;95783.16;6191329;23;20056;-84
2024/01/21 05:12:55;;;;;;;1.58;0.63;;;;;;;-4.32;72.86;95783.44;6216040;23;20307;-84
2024/01/21 05:15:20;;;;;;;5.20;0.80;;;;;;;-4.12;74.11;95786.72;6216294;23;20083;-84
2024/01/21 05:17:46;;;;;;;3.08;0.70;;;;;;;-4.16;73.37;95785.41;6216195;23;20000;-84
2024/01/21 05:20:11;;;;;;;1.13;0.50;;;;;;;-4.10;67.37;95784.84;6216366;23;20019;-84
2024/01/21 05:22:37;;;;;;;1.23;0.50;;;;;;;-4.20;69.05;95786.66;6215903;23;20000;-85
2024/01/21 05:25:03;;;;;;;0.93;0.55;;;;;;;-4.34;67.28;95785.31;6218084;23;20004;-84
2024/01/21 05:27:31;;;;;;;1.38;0.50;;;;;;;-4.15;66.40;95775.03;6191351;23;20000;-84
2024/01/21 05:29:57;;;;;;;3.70;0.68;;;;;;;-4.20;68.80;95778.97;6191628;23;20054;-84
2024/01/21 05:32:22;;;;;;;1.92;0.40;;;;;;;-4.10;62.66;95787.41;6215654;23;20032;-84
2024/01/21 05:34:48;;;;;;;0.80;0.40;;;;;;;-4.15;64.33;95787.84;6216363;23;20060;-84
2024/01/21 05:37:13;;;;;;;2.38;0.63;;;;;;;-4.14;65.01;95784.34;6216046;23;20063;-84
2024/01/21 05:39:39;;;;;;;1.00;0.50;;;;;;;-4.27;63.96;95789.75;6215948;23;20078;-84
2024/01/21 05:42:08;;;;;;;1.05;0.70;;;;;;;-4.21;65.67;95792.72;6216503;23;19997;-84
2024/01/21 05:44:33;;;;;;;2.55;0.63;;;;;;;-4.09;66.35;95780.53;6191276;23;20393;-84
2024/01/21 05:46:59;;;;;;;3.85;0.40;;;;;;;-4.29;67.07;95785.72;6215946;23;20005;-84
2024/01/21 05:49:25;;;;;;;1.17;0.55;;;;;;;-4.16;68.41;95793.91;6191173;23;20000;-84
2024/01/21 05:51:51;;;;;;;1.50;0.60;;;;;;;-4.38;68.53;95794.22;6215737;23;19997;-84
2024/01/21 05:54:17;;;;;;;2.05;0.52;;;;;;;-4.60;72.06;95801.25;6191161;23;20000;-84
2024/01/21 05:56:42;;;;;;;2.33;0.50;;;;;;;-4.54;69.59;95796.41;6191437;23;20000;-84
2024/01/21 05:59:08;;;;;;;1.05;0.57;;;;;;;-4.39;70.06;95808.75;6215840;23;20038;-84
2024/01/21 06:01:34;;;;;;;1.52;0.50;;;;;;;-4.46;67.93;95805.16;6191234;23;20028;-84
2024/01/21 06:03:59;;;;;;;2.83;0.90;;;;;;;-4.41;67.01;95800.41;6215178;23;19993;-84
2024/01/21 06:06:24;;;;;;;1.70;0.63;;;;;;;-4.29;64.14;95801.09;6190465;23;20322;-84
2024/01/21 06:08:50;;;;;;;0.50;0.50;;;;;;;-4.35;64.37;95796.50;6217440;23;20437;-84
2024/01/21 06:11:15;;;;;;;0.95;0.70;;;;;;;-4.37;66.10;95795.84;6190928;23;20036;-84
2024/01/21 06:13:41;;;;;;;1.83;0.63;;;;;;;-4.38;66.62;95796.78;6215492;23;20043;-84
2024/01/21 06:16:06;;;;;;;1.02;0.55;;;;;;;-4.33;65.57;95787.75;6215606;23;20003;-84
2024/01/21 06:18:32;;;;;;;0.98;0.50;;;;;;;-4.20;65.12;95791.75;6215912;23;19996;-84
2024/01/21 06:20:58;;;;;;;1.08;0.43;;;;;;;-4.37;65.26;95791.53;6217017;23;20034;-84
2024/01/21 06:23:24;;;;;;;2.88;0.82;;;;;;;-4.58;65.09;95787.38;6217393;23;20003;-83
2024/01/21 06:25:49;;;;;;;1.35;0.75;;;;;;;-4.55;64.26;95791.44;6215783;23;20332;-84
2024/01/21 06:28:16;;;;;;;0.70;0.43;;;;;;;-4.39;64.22;95788.28;6190728;23;20091;-84
2024/01/21 06:30:41;;;;;;;0.93;0.50;;;;;;;-4.35;61.61;95788.81;6215523;23;19996;-84
2024/01/21 06:33:07;;;;;;;1.25;0.60;;;;;;;-4.27;61.15;95788.94;6190486;23;20464;-84
2024/01/21 06:35:32;;;;;;;0.32;0.30;;;;;;;-4.30;60.19;95790.03;6215378;23;20046;-84
2024/01/21 06:37:58;;;;;;;0.75;0.57;;;;;;;-4.45;61.01;95792.19;6215800;23;20068;-84
2024/01/21 06:40:23;;;;;;;1.98;0.65;;;;;;;-4.34;60.24;95788.69;6190646;23;20001;-84
2024/01/21 06:42:49;;;;;;;0.73;0.40;;;;;;;-4.40;62.12;95800.28;6190466;23;20012;-84
2024/01/21 06:45:15;;;;;;;1.38;0.60;;;;;;;-4.34;60.75;95795.56;6215583;23;20092;-84
2024/01/21 06:47:41;;;;;;;1.63;0.50;;;;;;;-4.21;61.86;95793.50;6215459;23;20008;-84
2024/01/21 06:50:09;;;;;;;3.67;0.57;;;;;;;-4.34;60.61;95796.38;6216203;23;20058;-84
2024/01/21 06:52:34;;;;;;;0.30;0.30;;;;;;;-4.20;57.55;95799.44;6216864;23;20326;-84
2024/01/21 06:55:00;;;;;;;1.48;0.60;;;;;;;-4.29;57.43;95801.88;6215468;23;20039;-85
2024/01/21 06:57:26;;;;;;;1.55;0.60;;;;;;;-4.31;57.24;95808.06;6215780;23;20011;-84
2024/01/21 06:59:51;;;;;;;2.47;0.40;;;;;;;-4.31;56.35;95805.50;6216867;23;19999;-85
2024/01/21 07:02:17;;;;;;;1.10;0.68;;;;;;;-3.97;55.65;95805.03;6190829;23;20001;-86
2024/01/21 07:04:42;;;;;;;5.60;0.60;;;;;;;-3.63;56.35;95799.34;6215246;23;20005;-86
2024/01/21 07:07:08;;;;;;;2.17;0.95;;;;;;;-3.77;56.32;95800.63;6215515;23;20000;-86
2024/01/21 07:09:39;;;;;;;1.67;0.50;;;;;;;-3.63;55.44;95796.78;6215224;23;20051;-86
2024/01/21 07:12:06;;;;;;;1.90;0.80;;;;;;;-3.62;54.79;95806.06;6190400;23;20079;-86
2024/01/21 07:14:34;;;;;;;0.88;0.50;;;;;;;-3.44;54.81;95803.56;6217024;23;20399;-85
2024/01/21 07:17:03;;;;;;;1.80;0.88;;;;;;;-3.28;52.27;95813.19;6217303;23;20042;-85
2024/01/21 07:19:34;;;;;;;1.98;0.70;;;;;;;-2.92;49.19;95806.44;6192415;23;20000;-84
2024/01/21 07:21:59;;;;;;;0.80;0.70;;;;;;;-2.93;50.85;95808.22;6217306;23;20425;-84
2024/01/21 07:24:26;;;;;;;1.08;0.63;;;;;;;-2.66;59.47;95809.06;6192447;23;20004;-85
2024/01/21 07:26:51;;;;;;;1.25;0.73;;;;;;;-2.60;57.18;95812.78;6218639;23;19997;-84
2024/01/21 07:29:16;;;;;;;0.75;0.40;;;;;;;-2.58;57.30;95819.41;6191726;23;20007;-85
2024/01/21 07:31:42;;;;;;;1.08;0.50;;;;;;;-2.78;56.63;95803.38;6192199;23;19996;-84
2024/01/21 07:34:10;;;;;;;2.08;0.60;;;;;;;-2.75;57.24;95810.75;6217498;23;20012;-85
2024/01/21 07:36:36;;;;;;;0.95;0.60;;;;;;;-2.57;57.92;95809.97;6217691;23;20397;-85
2024/01/21 07:39:04;;;;;;;1.30;0.80;;;;;;;-2.54;58.54;95811.41;6217144;23;19996;-85
2024/01/21 07:41:30;;;;;;;2.00;0.65;;;;;;;-2.49;58.82;95804.88;6192480;23;20027;-85
2024/01/21 07:43:56;;;;;;;1.88;0.60;;;;;;;-2.48;58.72;95811.59;6188475;23;20084;-85
2024/01/21 07:46:22;;;;;;;1.00;0.60;;;;;;;-2.28;59.54;95814.00;6191106;23;20047;-88
2024/01/21 07:48:48;;;;;;;1.75;0.50;;;;;;;-2.09;58.36;95819.88;6217386;23;20054;-89
2024/01/21 07:51:15;;;;;;;0.60;0.40;;;;;;;-2.01;56.73;95814.78;6192993;23;20005;-87
2024/01/21 07:53:41;;;;;;;0.80;0.40;;;;;;;-2.03;56.42;95816.69;6193168;23;20310;-88
2024/01/21 07:56:06;;;;;;;1.02;0.50;;;;;;;-2.02;56.75;95819.13;6216401;23;20000;-87
2024/01/21 07:58:31;;;;;;;1.08;0.50;;;;;;;-1.83;56.18;95816.50;6192018;23;20007;-87
2024/01/21 08:00:57;;;;;;;1.10;0.65;;;;;;;-1.97;57.82;95802.44;6192865;23;20014;-87
2024/01/21 08:03:23;;;;;;;1.00;0.52;;;;;;;-1.75;57.55;95817.34;6217579;23;20425;-87
2024/01/21 08:05:48;;;;;;;6.28;0.90;;;;;;;-1.69;56.51;95803.06;6191720;23;20009;-86
2024/01/21 08:08:14;;;;;;;1.27;0.60;;;;;;;-1.63;55.97;95801.66;6192047;23;19996;-86
2024/01/21 08:10:39;;;;;;;3.58;0.80;;;;;;;-1.43;55.86;95804.78;6217000;23;20429;-87
2024/01/21 08:13:05;;;;;;;0.90;0.50;;;;;;;-1.43;53.95;95807.34;6192437;23;20006;-87
2024/01/21 08:15:30;;;;;;;1.58;0.63;;;;;;;-1.40;55.40;95799.31;6217056;23;19997;-87
2024/01/21 08:17:56;;;;;;;4.60;0.80;;;;;;;-1.22;58.61;95803.53;6217206;23;20028;-87
2024/01/21 08:20:21;;;;;;;3.72;0.77;;;;;;;-1.13;60.99;95805.16;6217435;23;20394;-88
2024/01/21 08:22:47;;;;;;;1.30;0.60;;;;;;;-1.09;64.96;95800.50;6216780;23;19996;-86
2024/01/21 08:25:14;;;;;;;1.85;0.68;;;;;;;-1.08;61.98;95797.78;6216346;23;20001;-88
2024/01/21 08:27:41;;;;;;;0.77;0.52;;;;;;;-1.02;62.33;95801.47;6216710;23;20000;-87
2024/01/21 08:30:08;;;;;;;2.88;0.60;;;;;;;-0.81;61.82;95807.94;6217410;23;20007;-87
2024/01/21 08:32:34;;;;;;;2.85;0.60;;;;;;;-0.84;60.39;95806.50;6216796;23;20459;-88
2024/01/21 08:35:00;;;;;;;1.00;0.60;;;;;;;-0.91;59.49;95808.09;6192073;23;20005;-87
2024/01/21 08:37:26;;;;;;;2.75;0.60;;;;;;;-0.76;60.69;95806.47;6192637;23;20004;-87
2024/01/21 08:39:52;;;;;;;0.98;0.50;;;;;;;-0.78;61.27;95807.63;6216830;23;20410;-87
2024/01/21 08:42:19;;;;;;;1.73;0.60;;;;;;;-0.67;59.89;95815.00;6217938;23;20334;-87
2024/01/21 08:44:45;;;;;;;1.67;0.65;;;;;;;-0.77;59.59;95810.03;6216728;23;20386;-87
2024/01/21 08:47:10;;;;;;;1.45;0.47;;;;;;;-0.68;59.01;95820.34;6216968;23;20003;-88
2024/01/21 08:49:36;;;;;;;2.35;0.60;;;;;;;-0.53;60.50;95815.34;6192541;23;20015;-87
2024/01/21 08:52:01;;;;;;;1.20;0.43;;;;;;;-0.38;60.38;95820.66;6191331;23;20117;-87
2024/01/21 08:54:27;;;;;;;1.67;0.60;;;;;;;-0.44;58.70;95815.16;6192397;23;20392;-87
2024/01/21 08:56:52;;;;;;;1.35;0.60;;;;;;;-0.24;59.48;95822.56;6191900;23;20008;-87
2024/01/21 08:59:18;;;;;;;2.38;0.68;;;;;;;-0.29;58.37;95809.34;6216788;23;20347;-87
2024/01/21 09:01:43;;;;;;;2.50;0.60;;;;;;;-0.25;57.29;95810.66;6192102;23;20310;-87
2024/01/21 09:04:10;;;;;;;1.55;0.85;;;;;;;-0.25;57.76;95815.81;6191853;23;19997;-87
2024/01/21 09:06:41;;;;;;;1.15;0.50;;;;;;;-0.17;56.97;95809.84;6216745;23;20399;-86
2024/01/21 09:09:13;;;;;;;0.93;0.43;;;;;;;-0.16;56.87;95817.38;6192646;23;20000;-87
2024/01/21 09:11:39;;;;;;;2.13;0.70;;;;;;;0.07;55.92;95819.28;6192677;23;20012;-87
2024/01/21 09:14:05;;;;;;;2.67;0.75;;;;;;;0.21;56.14;95827.31;6216664;23;20011;-86
2024/01/21 09:16:32;;;;;;;1.30;0.60;;;;;;;0.21;59.55;95829.88;6222964;23;20403;-93
2024/01/21 09:22:20;;;;;;;1.83;0.70;;;;;;;0.50;58.93;95825.91;6223319;23;20056;-93
2024/01/21 09:28:07;;;;;;;1.23;0.60;;;;;;;0.73;56.54;95843.25;6221883;23;19991;-93
2024/01/21 09:30:33;;;;;;;1.45;0.57;;;;;;;0.78;59.38;95846.13;6196162;23;19997;-92
2024/01/21 09:32:59;;;;;;;2.67;0.65;;;;;;;0.99;57.72;95845.53;6220197;23;20011;-93
2024/01/21 09:35:24;;;;;;;2.75;0.68;;;;;;;1.11;58.66;95854.50;6193707;23;20004;-93
2024/01/21 09:37:50;;;;;;;1.45;0.60;;;;;;;1.14;55.85;95858.50;6193844;23;20055;-93
2024/01/21 09:40:16;;;;;;;1.58;0.57;;;;;;;1.09;52.79;95848.69;6218731;23;20055;-93
2024/01/21 09:42:42;;;;;;;3.08;0.60;;;;;;;1.20;51.62;95849.25;6195570;23;20008;-93
2024/01/21 09:45:11;;;;;;;0.95;0.60;;;;;;;1.30;50.54;95846.47;6193397;23;20019;-93
2024/01/21 09:47:37;;;;;;;0.65;0.52;;;;;;;1.39;50.11;95856.56;6194178;23;20008;-93
2024/01/21 09:50:03;;;;;;;5.97;0.57;;;;;;;1.52;47.86;95844.88;6193701;23;20314;-92
2024/01/21 09:52:29;;;;;;;1.45;0.65;;;;;;;1.66;46.78;95849.28;6196309;23;20428;-92
2024/01/21 09:54:55;;;;;;;2.30;0.55;;;;;;;1.72;48.06;95855.50;6220182;23;20000;-93
2024/01/21 09:57:21;;;;;;;1.15;0.50;;;;;;;1.76;48.49;95856.78;6193894;23;19996;-92
2024/01/21 10:03:09;;;;;;;1.00;0.50;;;;;;;1.98;47.95;95854.31;6218285;23;20046;-92
2024/01/21 10:05:36;;;;;;;0.82;0.50;;;;;;;1.97;47.76;95856.09;6217386;23;20083;-93
2024/01/21 10:08:02;;;;;;;1.52;0.80;;;;;;;1.90;50.51;95852.59;6216614;23;20133;-92
2024/01/21 10:10:28;;;;;;;2.15;0.70;;;;;;;2.04;49.61;95850.22;6217673;23;20057;-91
2024/01/21 10:12:53;;;;;;;0.55;0.40;;;;;;;2.20;50.14;95846.69;6216260;23;20083;-91
2024/01/21 10:15:21;;;;;;;1.88;0.98;;;;;;;2.19;51.34;95845.88;6218170;23;20448;-92
2024/01/21 10:17:46;;;;;;;2.15;0.90;;;;;;;2.29;51.40;95848.19;6217584;23;20000;-92
2024/01/21 10:20:12;;;;;;;1.73;0.80;;;;;;;2.35;49.19;95850.06;6191629;23;20478;-90
2024/01/21 10:22:38;;;;;;;2.53;0.60;;;;;;;2.34;46.40;95845.88;6191779;23;20062;-89
2024/01/21 10:25:05;;;;;;;1.55;0.70;;;;;;;2.53;48.90;95843.72;6191883;23;20013;-92
2024/01/21 10:27:31;;;;;;;9.80;6.05;;;;;;;2.64;46.66;95832.94;6216169;23;19996;-92
2024/01/21 10:30:00;;;;;;;65.68;24.35;;;;;;;2.66;45.21;95828.38;6217485;23;19997;-90
2024/01/21 10:32:27;;;;;;;290.25;108.78;;;;;;;2.69;45.57;95825.41;6216195;23;20000;-91
2024/01/21 10:34:53;;;;;;;428.63;149.77;;;;;;;2.64;43.20;95827.75;6216321;23;19996;-91
2024/01/21 10:37:19;;;;;;;509.27;177.20;;;;;;;2.72;39.72;95833.78;6216017;23;20004;-91
2024/01/21 10:40:03;;;;;;;266.42;96.43;;;;;;;2.76;38.96;95842.81;6216057;23;20406;-90
2024/01/21 10:42:28;;;;;;;84.97;30.50;;;;;;;2.81;37.12;95837.91;6215831;23;20307;-91
2024/01/21 10:44:55;;;;;;;65.22;32.03;;;;;;;2.86;37.86;95834.78;6191415;23;20039;-91
2024/01/21 10:47:21;;;;;;;11.27;7.47;;;;;;;2.90;40.95;95826.47;6191590;23;20030;-90
2024/01/21 10:49:56;;;;;;;5.68;4.28;;;;;;;2.96;43.71;95823.13;6216064;23;20402;-90
2024/01/21 10:52:22;;;;;;;3.78;2.25;;;;;;;3.11;45.39;95828.28;6215960;23;20003;-90
2024/01/21 10:54:48;;;;;;;3.65;2.08;;;;;;;3.17;44.35;95829.34;6191111;23;20001;-91
2024/01/21 10:57:13;;;;;;;5.35;3.90;;;;;;;3.24;45.58;95824.22;6191203;23;20000;-93
2024/01/21 10:59:39;;;;;;;2.13;1.33;;;;;;;3.36;44.29;95830.50;6190919;23;20083;-90
2024/01/21 11:02:05;;;;;;;3.28;2.33;;;;;;;3.45;42.09;95822.59;6215497;23;20007;-88
2024/01/21 11:04:30;;;;;;;2.78;2.00;;;;;;;3.52;43.15;95824.25;6191777;23;20000;-94
2024/01/21 11:06:56;;;;;;;3.95;1.40;;;;;;;3.54;43.68;95816.31;6217135;23;20123;-93
2024/01/21 11:09:23;;;;;;;3.10;0.90;;;;;;;3.46;42.70;95830.19;6218893;23;20008;-94
2024/01/21 11:11:50;;;;;;;6.22;3.45;;;;;;;3.64;42.77;95826.34;6219492;23;20079;-93
2024/01/21 11:14:39;;;;;;;5.72;3.10;;;;;;;3.63;42.84;95825.53;6193086;23;20024;-94
2024/01/21 11:17:10;;;;;;;10.80;5.70;;;;;;;3.74;43.99;95826.03;6217203;23;19997;-94
2024/01/21 11:19:47;;;;;;;20.45;8.43;;;;;;;3.85;45.65;95832.47;6191713;23;20015;-94
2024/01/21 11:22:14;;;;;;;34.95;12.63;;;;;;;3.90;44.84;95830.16;6216906;23;20412;-93
2024/01/21 11:24:40;;;;;;;31.35;12.57;;;;;;;4.04;45.37;95831.84;6216284;23;20090;-94
2024/01/21 11:27:18;;;;;;;23.15;9.40;;;;;;;4.23;45.38;95826.97;6216422;23;20007;-94
2024/01/21 11:36:42;;;;;;;83.68;30.60;;;;;;;4.34;42.26;95821.25;6217400;23;20035;-93
2024/01/21 11:39:24;;;;;;;23.27;9.35;;;;;;;4.59;41.49;95817.38;6169892;23;20402;-93
2024/01/21 11:41:49;;;;;;;53.55;16.33;;;;;;;4.60;38.96;95816.38;6191443;23;20005;-95
2024/01/21 11:44:23;;;;;;;30.60;10.30;;;;;;;4.71;41.08;95813.22;6191838;23;20070;-93
2024/01/21 11:46:49;;;;;;;43.83;15.43;;;;;;;4.73;41.06;95823.41;6216185;23;20001;-94